Time;durP1;ratioP1;P1;durP2;ratioP2;P2;SDS_P1;SDS_P2;PMS_P1;PMS_P2;Temp;Humidity;BMP_temperature;BMP_pressure;BME280_temperature;BME280_humidity;BME280_pressure;Samples;Min_cycle;Max_cycle;Signal;HPM_P1;HPM_P2
2023/08/19 00:01:00;;;;;;;25.88;16.88;;;21.30;99.90;;;;;;5026435;28;20033;-75
2023/08/19 00:03:26;;;;;;;30.90;17.80;;;21.30;99.90;;;;;;5026401;28;20025;-74
2023/08/19 00:05:52;;;;;;;23.95;16.98;;;21.30;99.90;;;;;;5024558;28;20038;-74
2023/08/19 00:08:17;;;;;;;25.00;16.83;;;21.30;99.90;;;;;;5026212;28;20438;-75
2023/08/19 00:10:43;;;;;;;22.50;16.80;;;21.20;99.90;;;;;;5026278;28;20030;-75
2023/08/19 00:13:09;;;;;;;27.20;16.67;;;21.20;99.90;;;;;;5024273;28;20085;-75
2023/08/19 00:15:35;;;;;;;22.42;16.23;;;21.20;99.90;;;;;;5024625;28;20084;-74
2023/08/19 00:18:01;;;;;;;27.42;15.55;;;21.20;99.90;;;;;;5025310;28;20410;-76
2023/08/19 00:20:28;;;;;;;23.98;16.45;;;21.20;99.90;;;;;;5024570;28;20036;-74
2023/08/19 00:22:57;;;;;;;26.25;17.08;;;21.20;99.90;;;;;;5025382;28;20034;-74
2023/08/19 00:25:24;;;;;;;24.00;17.10;;;21.20;99.90;;;;;;5023634;28;20061;-73
2023/08/19 00:27:50;;;;;;;27.15;17.05;;;21.20;99.90;;;;;;5025165;28;20520;-73
2023/08/19 00:30:16;;;;;;;22.83;16.77;;;21.10;99.90;;;;;;5025412;28;20080;-74
2023/08/19 00:32:42;;;;;;;26.05;16.73;;;21.10;99.90;;;;;;5025165;28;20026;-75
2023/08/19 00:35:08;;;;;;;26.13;16.58;;;21.10;99.90;;;;;;5024920;28;20034;-74
2023/08/19 00:37:35;;;;;;;23.75;15.70;;;21.10;99.90;;;;;;5025489;28;20438;-75
2023/08/19 00:40:04;;;;;;;24.23;15.82;;;21.10;99.90;;;;;;5025483;28;20030;-74
2023/08/19 00:42:30;;;;;;;26.55;16.80;;;21.10;99.90;;;;;;5023592;28;20398;-75
2023/08/19 00:44:55;;;;;;;25.05;16.67;;;21.10;99.90;;;;;;5025122;28;20026;-74
2023/08/19 00:47:21;;;;;;;24.73;15.73;;;21.10;99.90;;;;;;5023933;28;20508;-73
2023/08/19 00:49:48;;;;;;;26.17;16.67;;;21.10;99.90;;;;;;5024418;28;20104;-75
2023/08/19 00:52:14;;;;;;;25.02;16.80;;;21.10;99.90;;;;;;5023226;28;20041;-74
2023/08/19 00:54:39;;;;;;;24.50;15.85;;;21.10;99.90;;;;;;5022958;28;20033;-74
2023/08/19 00:57:05;;;;;;;24.30;16.27;;;21.10;99.90;;;;;;5023511;28;20093;-75
2023/08/19 00:59:31;;;;;;;26.08;16.42;;;21.00;99.90;;;;;;5025210;28;20483;-75
2023/08/19 01:01:57;;;;;;;25.27;17.52;;;21.00;99.90;;;;;;5023654;28;20053;-74
2023/08/19 01:04:23;;;;;;;25.70;17.15;;;21.00;99.90;;;;;;5024365;28;20026;-75
2023/08/19 01:07:21;;;;;;;21.67;16.65;;;21.00;99.90;;;;;;5024655;28;20045;-74
2023/08/19 01:09:52;;;;;;;24.65;16.85;;;21.00;99.90;;;;;;5021403;28;20030;-74
2023/08/19 01:12:40;;;;;;;19.92;15.50;;;21.00;99.90;;;;;;5023335;28;20033;-74
2023/08/19 01:15:15;;;;;;;26.98;16.33;;;21.00;99.90;;;;;;5023169;28;20041;-74
2023/08/19 01:17:41;;;;;;;22.15;15.68;;;20.90;99.90;;;;;;5025004;28;20056;-75
2023/08/19 01:20:09;;;;;;;21.42;16.40;;;20.90;99.90;;;;;;5023797;28;20026;-75
2023/08/19 01:22:52;;;;;;;23.13;16.33;;;20.90;99.90;;;;;;5023017;28;20061;-75
2023/08/19 01:25:19;;;;;;;22.40;15.27;;;20.90;99.90;;;;;;5022701;28;20124;-75
2023/08/19 01:27:45;;;;;;;22.52;17.60;;;20.90;99.90;;;;;;5024607;28;20034;-75
2023/08/19 01:30:11;;;;;;;25.67;17.73;;;20.90;99.90;;;;;;5022771;28;20030;-76
2023/08/19 01:32:38;;;;;;;21.90;16.65;;;20.90;99.90;;;;;;5022948;28;20034;-75
2023/08/19 01:35:05;;;;;;;23.75;16.50;;;20.80;99.90;;;;;;5024341;28;20041;-77
2023/08/19 01:38:00;;;;;;;23.27;16.90;;;20.80;99.90;;;;;;5024149;28;20052;-75
2023/08/19 01:40:27;;;;;;;22.10;15.45;;;20.80;99.90;;;;;;5022098;28;20481;-75
2023/08/19 01:42:54;;;;;;;23.95;16.75;;;20.80;99.90;;;;;;5024185;28;20909;-75
2023/08/19 01:45:21;;;;;;;25.10;18.10;;;20.80;99.90;;;;;;5023669;28;20069;-76
2023/08/19 01:47:53;;;;;;;22.65;17.45;;;20.70;99.90;;;;;;5024280;28;20029;-76
2023/08/19 01:50:18;;;;;;;24.17;16.27;;;20.70;99.90;;;;;;5024242;28;20395;-76
2023/08/19 01:52:44;;;;;;;27.55;18.85;;;20.70;99.90;;;;;;5023799;28;20078;-75
2023/08/19 01:55:10;;;;;;;22.02;17.48;;;20.70;99.90;;;;;;5024043;28;20061;-74
2023/08/19 01:57:35;;;;;;;25.10;18.17;;;20.70;99.90;;;;;;5024108;28;20029;-76
2023/08/19 02:00:02;;;;;;;24.38;18.02;;;20.70;99.90;;;;;;5024019;28;20022;-76
2023/08/19 02:02:28;;;;;;;22.05;17.13;;;20.60;99.90;;;;;;5022885;28;20115;-75
2023/08/19 02:04:53;;;;;;;24.88;18.23;;;20.70;99.90;;;;;;5023633;28;20029;-74
2023/08/19 02:07:19;;;;;;;25.65;18.50;;;20.60;99.90;;;;;;5022215;28;20042;-74
2023/08/19 02:09:45;;;;;;;26.92;17.80;;;20.60;99.90;;;;;;5022704;28;20086;-76
2023/08/19 02:12:11;;;;;;;24.38;18.60;;;20.60;99.90;;;;;;5023697;28;20022;-74
2023/08/19 02:14:37;;;;;;;27.90;18.88;;;20.60;99.90;;;;;;5022510;28;20049;-75
2023/08/19 02:17:02;;;;;;;28.65;19.00;;;20.60;99.90;;;;;;5022726;28;20030;-75
2023/08/19 02:19:28;;;;;;;28.08;19.83;;;20.70;99.90;;;;;;5022333;28;20041;-74
2023/08/19 02:21:53;;;;;;;29.30;19.90;;;20.60;99.90;;;;;;5027944;28;20471;-74
2023/08/19 02:24:19;;;;;;;29.42;20.38;;;20.60;99.90;;;;;;5027786;28;20141;-75
2023/08/19 02:26:44;;;;;;;32.15;20.75;;;20.60;99.90;;;;;;5027035;28;20087;-75
2023/08/19 02:29:10;;;;;;;26.50;19.73;;;20.60;99.90;;;;;;5026307;28;20026;-75
2023/08/19 02:31:36;;;;;;;26.63;19.90;;;20.60;99.90;;;;;;5026551;28;20029;-76
2023/08/19 02:34:02;;;;;;;27.33;20.65;;;20.50;99.90;;;;;;5025542;28;20101;-75
2023/08/19 02:36:28;;;;;;;26.98;20.98;;;20.50;99.90;;;;;;5027615;28;20537;-75
2023/08/19 02:38:54;;;;;;;26.02;19.60;;;20.50;99.90;;;;;;5026320;28;20060;-76
2023/08/19 02:41:19;;;;;;;30.33;19.73;;;20.50;99.90;;;;;;5025716;28;20030;-74
2023/08/19 02:43:45;;;;;;;28.55;19.65;;;20.50;99.90;;;;;;5026165;28;20165;-75
2023/08/19 02:46:10;;;;;;;27.33;19.58;;;20.50;99.90;;;;;;5025837;28;20398;-75
2023/08/19 02:48:36;;;;;;;33.42;20.58;;;20.50;99.90;;;;;;5027082;28;20026;-75
2023/08/19 02:51:01;;;;;;;27.40;19.60;;;20.50;99.90;;;;;;5025955;28;20029;-77
2023/08/19 02:53:28;;;;;;;32.58;20.95;;;20.40;99.90;;;;;;5025883;28;20037;-75
2023/08/19 02:55:54;;;;;;;30.75;20.70;;;20.40;99.90;;;;;;5025402;28;20037;-75
2023/08/19 02:58:20;;;;;;;27.55;20.88;;;20.40;99.90;;;;;;5025822;28;20030;-75
2023/08/19 03:00:49;;;;;;;27.42;21.27;;;20.40;99.90;;;;;;5027244;28;20160;-75
2023/08/19 03:03:15;;;;;;;30.08;20.67;;;20.40;99.90;;;;;;5026558;28;20034;-75
2023/08/19 03:05:41;;;;;;;31.02;21.83;;;20.40;99.90;;;;;;5025500;28;20076;-75
2023/08/19 03:08:08;;;;;;;31.45;21.88;;;20.40;99.90;;;;;;5025686;28;20049;-75
2023/08/19 03:10:36;;;;;;;30.75;21.92;;;20.40;99.90;;;;;;5026758;28;20466;-75
2023/08/19 03:13:05;;;;;;;30.23;22.08;;;20.30;99.90;;;;;;5025892;28;20030;-75
2023/08/19 03:15:32;;;;;;;28.83;20.38;;;20.30;99.90;;;;;;5026496;28;20108;-75
2023/08/19 03:17:57;;;;;;;32.15;20.60;;;20.30;99.90;;;;;;5025453;28;20036;-75
2023/08/19 03:20:23;;;;;;;30.23;21.75;;;20.30;99.90;;;;;;5026926;28;20053;-77
2023/08/19 03:22:48;;;;;;;32.97;22.10;;;20.30;99.90;;;;;;5025318;28;20129;-74
2023/08/19 03:25:15;;;;;;;29.83;23.17;;;20.30;99.90;;;;;;5024717;28;20122;-74
2023/08/19 03:27:41;;;;;;;30.60;22.10;;;20.30;99.90;;;;;;5026497;28;20037;-75
2023/08/19 03:30:07;;;;;;;27.48;21.67;;;20.30;99.90;;;;;;5025366;28;20026;-74
2023/08/19 03:32:33;;;;;;;28.30;22.10;;;20.20;99.90;;;;;;5023731;28;20033;-76
2023/08/19 03:34:59;;;;;;;29.58;22.73;;;20.20;99.90;;;;;;5026445;28;20053;-75
2023/08/19 03:37:24;;;;;;;32.08;22.77;;;20.20;99.90;;;;;;5026228;28;20057;-75
2023/08/19 03:39:50;;;;;;;32.63;24.15;;;20.20;99.90;;;;;;5024978;28;20052;-75
2023/08/19 03:42:17;;;;;;;28.77;22.85;;;20.20;99.90;;;;;;5025048;28;20026;-75
2023/08/19 03:44:42;;;;;;;29.10;22.17;;;20.20;99.90;;;;;;5024543;28;20022;-75
2023/08/19 03:47:11;;;;;;;32.58;22.95;;;20.20;99.90;;;;;;5026152;28;20107;-74
2023/08/19 03:49:37;;;;;;;30.25;22.63;;;20.20;99.90;;;;;;5024905;28;20053;-74
2023/08/19 03:52:05;;;;;;;31.48;24.10;;;20.20;99.90;;;;;;5026087;28;20030;-75
2023/08/19 03:54:31;;;;;;;32.50;23.67;;;20.20;99.90;;;;;;5026210;28;20028;-75
2023/08/19 03:56:56;;;;;;;32.03;23.02;;;20.10;99.90;;;;;;5026023;28;20386;-75
2023/08/19 03:59:22;;;;;;;34.13;25.20;;;20.10;99.90;;;;;;5024388;28;20036;-75
2023/08/19 04:01:47;;;;;;;30.90;23.38;;;20.10;99.90;;;;;;5025949;28;20088;-75
2023/08/19 04:04:13;;;;;;;32.63;25.02;;;20.10;99.90;;;;;;5025865;28;20034;-75
2023/08/19 04:06:38;;;;;;;33.63;24.95;;;20.10;99.90;;;;;;5025692;28;20042;-75
2023/08/19 04:09:05;;;;;;;36.58;26.10;;;20.10;99.90;;;;;;5026076;28;20029;-76
2023/08/19 04:11:31;;;;;;;36.70;26.05;;;20.10;99.90;;;;;;5024485;28;20034;-75
2023/08/19 04:13:57;;;;;;;36.97;24.35;;;20.10;99.90;;;;;;5025748;28;20037;-74
2023/08/19 04:16:23;;;;;;;39.78;26.08;;;20.10;99.90;;;;;;5025597;28;20022;-76
2023/08/19 04:18:50;;;;;;;36.60;26.10;;;20.10;99.90;;;;;;5024109;28;20097;-74
2023/08/19 04:21:16;;;;;;;32.10;24.52;;;20.00;99.90;;;;;;5024238;28;20026;-75
2023/08/19 04:23:41;;;;;;;37.25;24.17;;;20.00;99.90;;;;;;5024269;28;20493;-75
2023/08/19 04:26:07;;;;;;;33.47;24.40;;;20.00;99.90;;;;;;5024682;28;20038;-75
2023/08/19 04:28:33;;;;;;;36.38;25.40;;;20.00;99.90;;;;;;5025666;28;20042;-75
2023/08/19 04:31:06;;;;;;;37.42;26.77;;;20.00;99.90;;;;;;5025536;28;20022;-74
2023/08/19 04:33:33;;;;;;;32.53;23.88;;;19.90;99.90;;;;;;5025040;28;20052;-75
2023/08/19 04:35:59;;;;;;;35.85;25.73;;;19.90;99.90;;;;;;5024203;28;20128;-75
2023/08/19 04:38:25;;;;;;;37.30;26.45;;;20.00;99.90;;;;;;5023808;28;20147;-75
2023/08/19 04:40:51;;;;;;;39.15;25.98;;;20.00;99.90;;;;;;5024075;28;20026;-76
2023/08/19 04:43:18;;;;;;;37.58;28.33;;;20.00;99.90;;;;;;5024053;28;20053;-74
2023/08/19 04:45:44;;;;;;;40.65;28.15;;;20.00;99.90;;;;;;5025050;28;20052;-75
2023/08/19 04:48:10;;;;;;;36.90;26.98;;;20.00;99.90;;;;;;5023521;28;20033;-76
2023/08/19 04:50:35;;;;;;;43.85;28.58;;;20.00;99.90;;;;;;5015487;28;20030;-74
2023/08/19 04:53:01;;;;;;;44.03;29.60;;;20.00;99.90;;;;;;5023834;28;20080;-74
2023/08/19 04:55:27;;;;;;;43.92;31.45;;;20.10;99.90;;;;;;5025254;28;20032;-75
2023/08/19 04:57:53;;;;;;;42.20;30.83;;;20.10;99.90;;;;;;5024926;28;20030;-75
2023/08/19 05:00:19;;;;;;;47.05;31.27;;;20.10;99.90;;;;;;5024819;28;20485;-73
2023/08/19 05:02:44;;;;;;;41.88;29.67;;;20.10;99.90;;;;;;5024901;28;20036;-73
2023/08/19 05:05:10;;;;;;;42.72;30.75;;;20.10;99.90;;;;;;5024840;28;20026;-74
2023/08/19 05:07:36;;;;;;;49.97;30.33;;;20.20;99.90;;;;;;5024574;28;20034;-74
2023/08/19 05:10:02;;;;;;;41.15;29.77;;;20.20;99.90;;;;;;5025502;28;20032;-75
2023/08/19 05:12:28;;;;;;;49.33;32.00;;;20.20;99.90;;;;;;5025622;28;20041;-73
2023/08/19 05:14:53;;;;;;;45.90;30.95;;;20.20;99.90;;;;;;5024462;28;20405;-74
2023/08/19 05:17:19;;;;;;;46.00;30.80;;;20.20;99.90;;;;;;5023543;28;20060;-74
2023/08/19 05:19:45;;;;;;;43.78;29.67;;;20.30;99.90;;;;;;5024123;28;20026;-74
2023/08/19 05:22:10;;;;;;;45.53;31.55;;;20.30;99.90;;;;;;5023508;28;20022;-73
2023/08/19 05:24:36;;;;;;;46.22;31.63;;;20.30;99.90;;;;;;5017605;28;20041;-73
2023/08/19 05:27:02;;;;;;;44.03;30.92;;;20.30;99.90;;;;;;5009718;28;20491;-73
2023/08/19 05:29:28;;;;;;;40.72;29.65;;;20.40;99.90;;;;;;5009772;28;20026;-73
2023/08/19 05:31:54;;;;;;;41.05;30.65;;;20.40;99.90;;;;;;5021697;28;20488;-74
2023/08/19 05:34:20;;;;;;;43.20;30.48;;;20.40;99.90;;;;;;5023530;28;20049;-74
2023/08/19 05:36:46;;;;;;;46.17;32.25;;;20.40;99.90;;;;;;5023860;28;20022;-74
2023/08/19 05:39:11;;;;;;;39.85;27.45;;;20.50;99.90;;;;;;5023689;28;20053;-74
2023/08/19 05:41:37;;;;;;;42.88;31.08;;;20.50;99.90;;;;;;5024608;28;20030;-73
2023/08/19 05:44:04;;;;;;;46.35;30.95;;;20.50;99.90;;;;;;5024732;28;20037;-75
2023/08/19 05:46:30;;;;;;;52.38;33.40;;;20.60;99.90;;;;;;5022260;28;20049;-73
2023/08/19 05:48:56;;;;;;;45.05;31.90;;;20.60;99.90;;;;;;5024722;28;20026;-74
2023/08/19 05:51:21;;;;;;;46.88;33.10;;;20.60;99.90;;;;;;5018201;28;20033;-74
2023/08/19 05:53:47;;;;;;;45.35;32.88;;;20.70;99.90;;;;;;5015296;28;20026;-73
2023/08/19 05:56:12;;;;;;;48.83;33.45;;;20.70;99.90;;;;;;5020201;28;20078;-74
2023/08/19 05:58:38;;;;;;;45.97;31.88;;;20.70;99.90;;;;;;5014302;28;20026;-73
2023/08/19 06:01:07;;;;;;;45.20;33.47;;;20.80;99.90;;;;;;5013077;28;20089;-75
2023/08/19 06:03:34;;;;;;;41.88;30.58;;;20.80;99.90;;;;;;5016546;28;20109;-76
2023/08/19 06:06:06;;;;;;;43.70;31.65;;;20.90;99.90;;;;;;5021195;28;20041;-74
2023/08/19 06:08:34;;;;;;;46.05;31.45;;;20.90;99.90;;;;;;5021587;28;20030;-75
2023/08/19 06:11:05;;;;;;;44.35;31.63;;;21.00;99.90;;;;;;5021037;28;20589;-73
2023/08/19 06:13:32;;;;;;;46.67;32.38;;;21.00;99.90;;;;;;5018915;28;20080;-74
2023/08/19 06:15:58;;;;;;;47.15;32.30;;;21.00;99.90;;;;;;5023586;28;20069;-75
2023/08/19 06:18:24;;;;;;;46.00;33.03;;;21.10;99.90;;;;;;5023038;28;20030;-75
2023/08/19 06:20:51;;;;;;;46.58;33.78;;;21.10;99.90;;;;;;5024363;28;20087;-75
2023/08/19 06:23:20;;;;;;;46.75;33.95;;;21.20;99.90;;;;;;5022537;28;20043;-75
2023/08/19 06:25:48;;;;;;;44.47;33.00;;;21.20;99.90;;;;;;5022301;28;20045;-75
2023/08/19 06:28:14;;;;;;;45.90;33.72;;;21.20;99.90;;;;;;5024353;28;20026;-74
2023/08/19 06:30:40;;;;;;;48.70;34.30;;;21.20;99.90;;;;;;5022716;28;20029;-75
2023/08/19 06:33:06;;;;;;;46.75;33.13;;;21.30;99.90;;;;;;5011233;28;20065;-75
2023/08/19 06:35:33;;;;;;;44.08;32.53;;;21.30;99.90;;;;;;5014046;28;20038;-75
2023/08/19 06:38:07;;;;;;;45.22;33.35;;;21.30;99.90;;;;;;5024733;28;20049;-75
2023/08/19 06:40:36;;;;;;;45.13;33.08;;;21.40;99.90;;;;;;5007542;28;20027;-75
2023/08/19 06:43:06;;;;;;;40.90;31.10;;;21.40;99.90;;;;;;5004959;28;20042;-76
2023/08/19 06:45:33;;;;;;;45.00;31.58;;;21.50;99.90;;;;;;5004341;28;20042;-74
2023/08/19 06:48:00;;;;;;;41.92;31.23;;;21.50;99.90;;;;;;5008084;28;20030;-74
2023/08/19 06:50:27;;;;;;;45.95;31.35;;;21.60;99.90;;;;;;5023512;28;20026;-73
2023/08/19 06:52:53;;;;;;;38.90;29.38;;;21.60;99.90;;;;;;5018130;28;20474;-73
2023/08/19 06:55:19;;;;;;;46.65;31.73;;;21.70;99.90;;;;;;5019597;28;20029;-74
2023/08/19 06:58:00;;;;;;;41.20;31.60;;;21.70;99.90;;;;;;5021218;28;20030;-74
2023/08/19 07:00:25;;;;;;;38.97;30.08;;;21.80;99.90;;;;;;5022186;28;20104;-75
2023/08/19 07:02:53;;;;;;;39.42;29.58;;;21.90;99.90;;;;;;5017916;28;20475;-74
2023/08/19 07:05:20;;;;;;;39.22;29.08;;;21.90;99.90;;;;;;5019325;28;20030;-75
2023/08/19 07:07:50;;;;;;;40.78;29.00;;;22.00;99.90;;;;;;5025218;28;20022;-75
2023/08/19 07:10:17;;;;;;;39.45;28.23;;;22.00;99.90;;;;;;5025925;28;20077;-75
2023/08/19 07:12:44;;;;;;;38.72;28.80;;;22.10;99.90;;;;;;5026265;28;20022;-74
2023/08/19 07:15:14;;;;;;;42.50;28.80;;;22.20;99.90;;;;;;5024165;28;20100;-73
2023/08/19 07:17:46;;;;;;;38.85;28.30;;;22.30;99.90;;;;;;5026710;28;20185;-73
2023/08/19 07:20:16;;;;;;;39.33;28.52;;;22.40;99.90;;;;;;5015111;28;20045;-74
2023/08/19 07:22:43;;;;;;;38.08;27.20;;;22.40;99.90;;;;;;5016875;28;20117;-73
2023/08/19 07:25:10;;;;;;;39.85;28.27;;;22.50;99.90;;;;;;5027133;28;20064;-77
2023/08/19 07:27:36;;;;;;;31.95;25.55;;;22.60;99.90;;;;;;5022320;28;20037;-77
2023/08/19 07:30:03;;;;;;;34.55;27.17;;;22.70;99.90;;;;;;5025831;28;20032;-77
2023/08/19 07:32:31;;;;;;;37.05;28.48;;;22.70;99.90;;;;;;5026270;28;20513;-75
2023/08/19 07:34:57;;;;;;;38.78;27.42;;;22.80;99.90;;;;;;5023582;28;20060;-74
2023/08/19 07:37:23;;;;;;;37.95;26.50;;;22.80;99.90;;;;;;5025505;28;20109;-75
2023/08/19 07:39:50;;;;;;;35.88;26.48;;;22.90;99.90;;;;;;5027121;28;20032;-72
2023/08/19 07:42:16;;;;;;;36.42;25.92;;;23.00;99.90;;;;;;5025005;28;20124;-74
2023/08/19 07:44:41;;;;;;;32.80;25.65;;;23.10;99.90;;;;;;5024293;28;20100;-75
2023/08/19 07:47:07;;;;;;;38.90;24.80;;;23.30;99.90;;;;;;5026952;28;20042;-76
2023/08/19 07:49:35;;;;;;;33.80;24.48;;;23.40;99.90;;;;;;5026686;28;20443;-76
2023/08/19 07:52:01;;;;;;;31.88;24.27;;;23.50;99.90;;;;;;5023719;28;20045;-75
2023/08/19 07:54:27;;;;;;;31.33;24.35;;;23.70;99.90;;;;;;5025503;28;20037;-75
2023/08/19 07:56:53;;;;;;;32.65;24.27;;;23.70;99.90;;;;;;5019661;28;20070;-76
2023/08/19 07:59:21;;;;;;;36.40;24.35;;;23.80;99.90;;;;;;5021668;28;20037;-75
2023/08/19 08:01:47;;;;;;;35.65;23.00;;;23.90;99.90;;;;;;5021451;28;20090;-73
2023/08/19 08:04:12;;;;;;;34.60;23.50;;;23.90;99.90;;;;;;5024117;28;20030;-74
2023/08/19 08:06:38;;;;;;;29.75;23.02;;;24.00;99.90;;;;;;5024916;28;20061;-74
2023/08/19 08:09:04;;;;;;;30.23;22.65;;;24.00;99.90;;;;;;5025150;28;20084;-75
2023/08/19 08:11:29;;;;;;;31.73;22.00;;;24.00;99.90;;;;;;5025472;28;20037;-74
2023/08/19 08:13:56;;;;;;;27.40;22.13;;;23.90;99.90;;;;;;5021737;28;20137;-73
2023/08/19 08:16:21;;;;;;;29.42;22.55;;;23.90;99.90;;;;;;5017012;28;20677;-72
2023/08/19 08:18:47;;;;;;;31.15;23.00;;;23.90;99.90;;;;;;5023194;28;20061;-72
2023/08/19 08:21:14;;;;;;;30.38;22.10;;;24.00;99.90;;;;;;5015795;28;20030;-76
2023/08/19 08:23:40;;;;;;;28.77;22.92;;;24.10;99.90;;;;;;5031005;28;20025;-73
2023/08/19 08:26:06;;;;;;;28.65;22.67;;;24.10;99.90;;;;;;5017943;28;20551;-78
2023/08/19 08:28:32;;;;;;;29.30;22.63;;;24.20;99.90;;;;;;5025527;28;20033;-76
2023/08/19 08:30:58;;;;;;;28.63;21.35;;;24.30;99.90;;;;;;5016416;28;20092;-76
2023/08/19 08:33:25;;;;;;;28.33;20.23;;;24.50;99.90;;;;;;5017314;28;20441;-73
2023/08/19 08:35:51;;;;;;;26.73;21.35;;;24.70;99.90;;;;;;5020681;28;20060;-74
2023/08/19 08:38:17;;;;;;;27.40;19.70;;;24.90;99.90;;;;;;5021789;28;20030;-72
2023/08/19 08:40:43;;;;;;;27.25;19.70;;;25.20;99.90;;;;;;5007605;28;20088;-72
2023/08/19 08:43:09;;;;;;;22.77;18.90;;;25.30;99.90;;;;;;5020152;28;20033;-76
2023/08/19 08:45:36;;;;;;;26.33;18.52;;;25.50;99.90;;;;;;5022202;28;20033;-77
2023/08/19 08:48:02;;;;;;;23.00;17.60;;;25.70;99.90;;;;;;5012269;28;20052;-74
2023/08/19 08:50:28;;;;;;;23.15;17.30;;;25.90;99.90;;;;;;5021031;28;20340;-73
2023/08/19 08:52:55;;;;;;;24.02;17.70;;;26.00;99.90;;;;;;5012741;28;20032;-73
2023/08/19 08:55:20;;;;;;;20.17;17.33;;;26.30;99.90;;;;;;5016779;28;20145;-72
2023/08/19 08:57:46;;;;;;;22.65;17.52;;;26.50;99.90;;;;;;5023636;28;20034;-75
2023/08/19 09:00:14;;;;;;;24.25;16.30;;;26.60;99.90;;;;;;5016954;28;20022;-73
2023/08/19 09:02:40;;;;;;;20.63;16.17;;;26.70;99.90;;;;;;5015312;28;20037;-69
2023/08/19 09:05:07;;;;;;;24.40;16.23;;;26.80;99.90;;;;;;5018713;28;20029;-69
2023/08/19 09:07:40;;;;;;;23.77;16.38;;;26.70;99.90;;;;;;5015963;28;20044;-76
2023/08/19 09:10:14;;;;;;;22.35;16.13;;;26.70;99.90;;;;;;5024077;28;20026;-72
2023/08/19 09:12:42;;;;;;;21.30;15.82;;;26.70;99.90;;;;;;5023517;28;20018;-73
2023/08/19 09:15:10;;;;;;;23.02;15.13;;;26.70;99.90;;;;;;5023353;28;20033;-71
2023/08/19 09:17:36;;;;;;;26.02;16.23;;;26.80;99.90;;;;;;5025677;28;20022;-73
2023/08/19 09:20:06;;;;;;;18.58;14.90;;;26.90;99.90;;;;;;5022652;28;20032;-72
2023/08/19 09:22:31;;;;;;;18.75;14.95;;;27.00;99.90;;;;;;5015595;28;20026;-73
2023/08/19 09:24:57;;;;;;;19.83;14.75;;;27.00;99.90;;;;;;5017443;28;21218;-73
2023/08/19 09:27:26;;;;;;;20.00;15.82;;;27.00;99.90;;;;;;5013869;28;20045;-74
2023/08/19 09:29:53;;;;;;;20.75;16.05;;;27.00;99.90;;;;;;5019997;28;20026;-74
2023/08/19 09:32:29;;;;;;;23.80;15.00;;;26.90;99.90;;;;;;5024829;28;20049;-71
2023/08/19 09:35:03;;;;;;;15.95;14.13;;;26.80;99.90;;;;;;5023183;28;20527;-71
2023/08/19 09:37:30;;;;;;;18.05;14.82;;;26.80;99.90;;;;;;5023888;28;20049;-71
2023/08/19 09:39:56;;;;;;;18.00;13.90;;;26.80;99.90;;;;;;5023641;28;20077;-72
2023/08/19 09:42:22;;;;;;;18.27;14.57;;;26.90;99.90;;;;;;5015608;28;20029;-71
2023/08/19 09:44:47;;;;;;;20.52;14.40;;;26.90;99.90;;;;;;5017538;28;20034;-73
2023/08/19 09:47:13;;;;;;;16.25;13.02;;;26.90;99.90;;;;;;5012033;28;20029;-72
2023/08/19 09:49:39;;;;;;;18.77;14.50;;;26.90;99.90;;;;;;5023595;28;20105;-76
2023/08/19 09:52:05;;;;;;;17.85;14.18;;;26.90;99.90;;;;;;5023355;28;20483;-72
2023/08/19 09:54:30;;;;;;;20.33;13.98;;;26.90;99.90;;;;;;5024993;28;20478;-72
2023/08/19 09:56:58;;;;;;;16.15;13.07;;;26.90;99.90;;;;;;5020844;28;20077;-71
2023/08/19 09:59:25;;;;;;;15.35;13.73;;;27.00;99.90;;;;;;5015915;28;20041;-74
2023/08/19 10:01:52;;;;;;;18.50;13.60;;;27.00;99.90;;;;;;5033433;28;20117;-71
2023/08/19 10:04:20;;;;;;;16.58;13.68;;;27.00;99.90;;;;;;5021664;28;20060;-72
2023/08/19 10:06:48;;;;;;;17.17;13.88;;;27.00;99.90;;;;;;5023199;28;20033;-73
2023/08/19 10:09:19;;;;;;;19.25;13.85;;;27.00;99.90;;;;;;5020018;28;20071;-71
2023/08/19 10:11:48;;;;;;;16.00;13.02;;;27.00;99.90;;;;;;5010384;28;20073;-71
2023/08/19 10:14:15;;;;;;;16.27;13.10;;;26.90;99.90;;;;;;5020809;28;20032;-73
2023/08/19 10:16:44;;;;;;;17.08;12.98;;;26.90;99.90;;;;;;5019498;28;20022;-73
2023/08/19 10:19:13;;;;;;;16.95;13.13;;;26.90;99.90;;;;;;5022307;28;20034;-75
2023/08/19 10:21:40;;;;;;;19.98;13.88;;;27.00;99.90;;;;;;5020258;28;20501;-72
2023/08/19 10:24:07;;;;;;;16.42;14.07;;;27.00;99.90;;;;;;5019234;28;20038;-72
2023/08/19 10:26:33;;;;;;;16.73;14.10;;;27.10;99.90;;;;;;5014481;28;20046;-73
2023/08/19 10:29:06;;;;;;;17.02;13.38;;;27.10;99.90;;;;;;5016271;28;20049;-71
2023/08/19 10:31:32;;;;;;;17.33;14.10;;;27.20;99.90;;;;;;5009707;28;20056;-73
2023/08/19 10:33:58;;;;;;;20.25;14.00;;;27.30;99.90;;;;;;5009082;28;20046;-71
2023/08/19 10:36:30;;;;;;;18.00;13.82;;;27.30;99.90;;;;;;5012079;28;20038;-70
2023/08/19 10:39:05;;;;;;;18.10;14.27;;;27.40;99.90;;;;;;5014538;28;20757;-72
2023/08/19 10:41:38;;;;;;;19.50;14.30;;;27.40;99.90;;;;;;5017339;28;20030;-72
2023/08/19 10:44:07;;;;;;;16.15;14.07;;;27.40;99.90;;;;;;5025657;28;20034;-73
2023/08/19 10:46:36;;;;;;;18.20;13.55;;;27.40;99.90;;;;;;5027719;28;20034;-72
2023/08/19 10:49:07;;;;;;;21.67;13.73;;;27.40;99.90;;;;;;5021213;28;20092;-74
2023/08/19 10:52:03;;;;;;;19.67;12.95;;;27.40;99.90;;;;;;5013661;28;20026;-75
2023/08/19 10:54:43;;;;;;;20.02;13.68;;;27.40;99.90;;;;;;5022686;28;20114;-72
2023/08/19 10:57:22;;;;;;;16.02;12.88;;;27.40;99.90;;;;;;5008168;28;20062;-72
2023/08/19 10:59:54;;;;;;;21.00;13.43;;;27.40;99.90;;;;;;5017901;28;20064;-72
2023/08/19 11:02:20;;;;;;;16.38;13.18;;;27.40;99.90;;;;;;5013859;28;20034;-71
2023/08/19 11:04:47;;;;;;;18.45;13.90;;;27.30;99.90;;;;;;5018860;28;20123;-73
2023/08/19 11:07:13;;;;;;;16.98;13.60;;;27.40;99.90;;;;;;5018043;28;20046;-74
2023/08/19 11:09:42;;;;;;;17.20;13.52;;;27.30;99.90;;;;;;5025609;28;20494;-72
2023/08/19 11:12:09;;;;;;;18.08;13.63;;;27.30;99.90;;;;;;5019556;28;20388;-74
2023/08/19 11:14:35;;;;;;;16.65;13.57;;;27.30;99.90;;;;;;5043958;28;20050;-72
2023/08/19 11:17:02;;;;;;;17.42;13.02;;;27.20;99.90;;;;;;5025983;28;20038;-71
2023/08/19 11:19:30;;;;;;;18.65;13.10;;;27.20;99.90;;;;;;5025382;28;20122;-73
2023/08/19 11:21:57;;;;;;;16.58;13.73;;;27.20;99.90;;;;;;5022833;28;20045;-71
2023/08/19 11:24:30;;;;;;;15.02;12.95;;;27.20;99.90;;;;;;5025302;28;20116;-71
2023/08/19 11:26:56;;;;;;;18.08;12.70;;;27.20;99.90;;;;;;5025639;28;20038;-71
2023/08/19 11:29:22;;;;;;;21.00;14.10;;;27.10;99.90;;;;;;5024515;28;20041;-73
2023/08/19 11:31:47;;;;;;;22.00;13.95;;;27.10;99.90;;;;;;5024878;28;20076;-72
2023/08/19 11:34:14;;;;;;;17.95;14.23;;;27.10;99.90;;;;;;5025834;28;20073;-74
2023/08/19 11:36:43;;;;;;;17.05;13.25;;;27.10;99.90;;;;;;5012459;28;20030;-74
2023/08/19 11:39:09;;;;;;;16.55;14.05;;;27.10;99.90;;;;;;5015809;28;20033;-74
2023/08/19 11:41:35;;;;;;;17.08;14.25;;;27.00;99.90;;;;;;5022666;28;20026;-74
2023/08/19 11:44:05;;;;;;;18.45;14.20;;;27.00;99.90;;;;;;5025220;28;20061;-74
2023/08/19 11:46:32;;;;;;;18.60;14.25;;;27.00;99.90;;;;;;5024059;28;20061;-73
2023/08/19 11:48:59;;;;;;;16.08;13.65;;;26.90;99.90;;;;;;5022150;28;20034;-72
2023/08/19 11:51:27;;;;;;;17.95;14.63;;;27.00;99.90;;;;;;5019874;28;20037;-73
2023/08/19 11:54:00;;;;;;;19.00;14.15;;;26.90;99.90;;;;;;5015348;28;20042;-74
2023/08/19 11:56:26;;;;;;;17.80;14.57;;;26.90;99.90;;;;;;5021751;28;20061;-73
2023/08/19 11:58:52;;;;;;;17.63;14.40;;;26.90;99.90;;;;;;5021186;28;20037;-74
2023/08/19 12:01:20;;;;;;;20.90;14.95;;;26.90;99.90;;;;;;5022527;28;20080;-72
2023/08/19 12:03:47;;;;;;;22.40;14.90;;;26.90;99.90;;;;;;5016799;28;20061;-72
2023/08/19 12:06:13;;;;;;;17.40;14.95;;;26.80;99.90;;;;;;5016004;28;20054;-72
2023/08/19 12:08:41;;;;;;;17.52;14.23;;;26.90;99.90;;;;;;5015060;28;20030;-73
2023/08/19 12:11:11;;;;;;;20.05;14.73;;;26.80;99.90;;;;;;5012885;28;20049;-73
2023/08/19 12:13:37;;;;;;;17.52;14.27;;;26.80;99.90;;;;;;5017534;28;20122;-73
2023/08/19 12:16:07;;;;;;;21.33;15.60;;;26.70;99.90;;;;;;5010891;28;20030;-74
2023/08/19 12:18:36;;;;;;;20.77;15.70;;;26.70;99.90;;;;;;5020732;28;20037;-73
2023/08/19 12:21:03;;;;;;;18.98;15.80;;;26.70;99.90;;;;;;5023825;28;20034;-72
2023/08/19 12:23:30;;;;;;;20.00;15.68;;;26.70;99.90;;;;;;5025010;28;20030;-72
2023/08/19 12:25:57;;;;;;;19.15;15.38;;;26.60;99.90;;;;;;5028769;28;20042;-74
2023/08/19 12:28:24;;;;;;;18.25;14.65;;;26.60;99.90;;;;;;5014876;28;20117;-72